O John Clark Restricted Landing Area [CLOSED]

Jump to: basic info | weather | comments

Related pages: nearby airports | nearby navaids | notams | map

Basic information (top)

Codes: 7IL2
Location: lon 42.368401, lat -87.991699, elev 790 ft / 241 m msl
Status: closed

Weather (top)

Current conditions for Waukegan Regional Airport 6nm (12km) ENE (rec'd 2014/10/21 10:55Z):

KUGN 211055Z 33005KT 10SM OVC049 07/04 A3008 RMK AO2 SLP189 T00720039

Airport forecast for Kenosha Regional Airport 14nm (26km) NNE (rec'd 2014/10/21 06:21Z):

TAF KENW 210520Z 2106/2206 35007KT P6SM OVC040 
     FM211000 35010KT P6SM BKN040 
     FM211500 01011KT P6SM SCT018 BKN030 
     FM212000 01013KT P6SM SCT030 SCT150 
     FM220000 02009KT P6SM SCT250

Latest comments (top)

No comments yet for O John Clark Restricted Landing Area

More... (top)

See also NOTAMs and nearby airports and navaids, or visit the O John Clark Restricted Landing Area page at the main OurAirports website..